sensor_id;sensor_type;location;lat;lon;timestamp;pressure;altitude;pressure_sealevel;temperature;humidity
24160;BME280;62385;41.594;23.808;2023-04-24T00:00:11;95431.25;;;8.51;70.91
24160;BME280;62385;41.594;23.808;2023-04-24T00:02:41;95423.16;;;8.52;70.45
24160;BME280;62385;41.594;23.808;2023-04-24T00:05:12;95431.06;;;8.44;70.58
24160;BME280;62385;41.594;23.808;2023-04-24T00:07:37;95429.00;;;8.30;70.60
24160;BME280;62385;41.594;23.808;2023-04-24T00:10:03;95416.47;;;8.06;71.93
24160;BME280;62385;41.594;23.808;2023-04-24T00:12:30;95429.53;;;8.42;70.48
24160;BME280;62385;41.594;23.808;2023-04-24T00:14:56;95421.69;;;8.24;70.67
24160;BME280;62385;41.594;23.808;2023-04-24T00:17:22;95417.72;;;7.94;72.49
24160;BME280;62385;41.594;23.808;2023-04-24T00:19:49;95420.91;;;8.06;71.50
24160;BME280;62385;41.594;23.808;2023-04-24T00:22:16;95415.91;;;7.95;71.98
24160;BME280;62385;41.594;23.808;2023-04-24T00:24:43;95414.91;;;7.96;72.61
24160;BME280;62385;41.594;23.808;2023-04-24T00:27:08;95421.34;;;7.93;72.88
24160;BME280;62385;41.594;23.808;2023-04-24T00:29:34;95413.97;;;8.05;72.58
24160;BME280;62385;41.594;23.808;2023-04-24T00:32:00;95399.69;;;7.89;72.74
24160;BME280;62385;41.594;23.808;2023-04-24T00:34:25;95411.88;;;7.82;72.98
24160;BME280;62385;41.594;23.808;2023-04-24T00:36:51;95405.06;;;7.80;73.67
24160;BME280;62385;41.594;23.808;2023-04-24T00:39:18;95393.03;;;7.85;73.49
24160;BME280;62385;41.594;23.808;2023-04-24T00:41:45;95392.34;;;7.83;73.93
24160;BME280;62385;41.594;23.808;2023-04-24T00:44:11;95378.28;;;8.09;73.54
24160;BME280;62385;41.594;23.808;2023-04-24T00:46:37;95389.59;;;8.19;72.96
24160;BME280;62385;41.594;23.808;2023-04-24T00:49:04;95395.66;;;8.11;72.65
24160;BME280;62385;41.594;23.808;2023-04-24T00:51:30;95384.16;;;8.28;72.02
24160;BME280;62385;41.594;23.808;2023-04-24T00:53:59;95383.41;;;8.86;70.56
24160;BME280;62385;41.594;23.808;2023-04-24T00:56:25;95384.91;;;9.13;69.62
24160;BME280;62385;41.594;23.808;2023-04-24T00:58:51;95382.25;;;9.13;69.42
24160;BME280;62385;41.594;23.808;2023-04-24T01:01:21;95381.44;;;9.37;69.01
24160;BME280;62385;41.594;23.808;2023-04-24T01:03:49;95384.41;;;9.42;68.56
24160;BME280;62385;41.594;23.808;2023-04-24T01:06:16;95388.38;;;9.21;69.52
24160;BME280;62385;41.594;23.808;2023-04-24T01:08:43;95394.03;;;9.35;69.46
24160;BME280;62385;41.594;23.808;2023-04-24T01:11:10;95393.34;;;9.24;69.80
24160;BME280;62385;41.594;23.808;2023-04-24T01:13:37;95391.66;;;8.99;70.94
24160;BME280;62385;41.594;23.808;2023-04-24T01:16:03;95395.00;;;9.09;70.80
24160;BME280;62385;41.594;23.808;2023-04-24T01:18:28;95404.59;;;8.44;72.09
24160;BME280;62385;41.594;23.808;2023-04-24T01:20:57;95380.97;;;8.51;72.59
24160;BME280;62385;41.594;23.808;2023-04-24T01:23:23;95388.78;;;8.26;72.15
24160;BME280;62385;41.594;23.808;2023-04-24T01:25:50;95389.75;;;7.92;73.01
24160;BME280;62385;41.594;23.808;2023-04-24T01:28:17;95386.28;;;7.91;73.69
24160;BME280;62385;41.594;23.808;2023-04-24T01:30:43;95379.19;;;7.92;74.08
24160;BME280;62385;41.594;23.808;2023-04-24T01:33:10;95360.81;;;8.66;71.11
24160;BME280;62385;41.594;23.808;2023-04-24T01:35:36;95368.50;;;8.93;70.12
24160;BME280;62385;41.594;23.808;2023-04-24T01:38:02;95381.06;;;8.91;70.51
24160;BME280;62385;41.594;23.808;2023-04-24T01:40:28;95390.03;;;9.14;70.52
24160;BME280;62385;41.594;23.808;2023-04-24T01:42:57;95387.69;;;9.03;69.97
24160;BME280;62385;41.594;23.808;2023-04-24T01:45:23;95392.69;;;8.14;71.98
24160;BME280;62385;41.594;23.808;2023-04-24T01:47:49;95391.44;;;7.67;73.44
24160;BME280;62385;41.594;23.808;2023-04-24T01:50:16;95397.72;;;7.05;74.85
24160;BME280;62385;41.594;23.808;2023-04-24T01:52:42;95384.72;;;7.29;74.33
24160;BME280;62385;41.594;23.808;2023-04-24T01:55:09;95383.66;;;7.39;74.27
24160;BME280;62385;41.594;23.808;2023-04-24T01:57:36;95382.22;;;8.30;71.66
24160;BME280;62385;41.594;23.808;2023-04-24T02:00:03;95376.59;;;8.92;70.21
24160;BME280;62385;41.594;23.808;2023-04-24T02:02:41;95366.50;;;8.87;69.37
24160;BME280;62385;41.594;23.808;2023-04-24T02:05:08;95364.00;;;8.69;70.35
24160;BME280;62385;41.594;23.808;2023-04-24T02:07:35;95371.13;;;8.77;69.65
24160;BME280;62385;41.594;23.808;2023-04-24T02:10:01;95369.84;;;9.13;68.78
24160;BME280;62385;41.594;23.808;2023-04-24T02:12:27;95366.81;;;8.76;70.00
24160;BME280;62385;41.594;23.808;2023-04-24T02:14:52;95358.75;;;9.10;69.15
24160;BME280;62385;41.594;23.808;2023-04-24T02:17:18;95358.09;;;9.16;68.79
24160;BME280;62385;41.594;23.808;2023-04-24T02:19:44;95356.94;;;9.43;67.87
24160;BME280;62385;41.594;23.808;2023-04-24T02:22:10;95360.41;;;9.19;68.87
24160;BME280;62385;41.594;23.808;2023-04-24T02:24:36;95367.03;;;9.31;68.84
24160;BME280;62385;41.594;23.808;2023-04-24T02:27:02;95365.72;;;9.27;69.57
24160;BME280;62385;41.594;23.808;2023-04-24T02:29:28;95360.41;;;9.43;69.29
24160;BME280;62385;41.594;23.808;2023-04-24T02:31:54;95368.69;;;9.56;69.20
24160;BME280;62385;41.594;23.808;2023-04-24T02:34:19;95355.13;;;9.43;70.17
24160;BME280;62385;41.594;23.808;2023-04-24T02:36:45;95361.53;;;9.49;70.19
24160;BME280;62385;41.594;23.808;2023-04-24T02:39:14;95356.25;;;9.33;70.28
24160;BME280;62385;41.594;23.808;2023-04-24T02:41:42;95338.56;;;8.93;71.62
24160;BME280;62385;41.594;23.808;2023-04-24T02:44:08;95347.06;;;8.12;73.07
24160;BME280;62385;41.594;23.808;2023-04-24T02:46:34;95342.56;;;8.39;72.58
24160;BME280;62385;41.594;23.808;2023-04-24T02:48:59;95342.19;;;9.08;71.28
24160;BME280;62385;41.594;23.808;2023-04-24T02:51:25;95341.53;;;9.30;69.55
24160;BME280;62385;41.594;23.808;2023-04-24T02:53:52;95342.56;;;8.39;73.20
24160;BME280;62385;41.594;23.808;2023-04-24T02:56:18;95340.66;;;8.57;72.37
24160;BME280;62385;41.594;23.808;2023-04-24T02:58:43;95333.09;;;9.43;69.71
24160;BME280;62385;41.594;23.808;2023-04-24T03:01:09;95333.75;;;9.04;70.07
24160;BME280;62385;41.594;23.808;2023-04-24T03:03:38;95335.41;;;8.97;71.50
24160;BME280;62385;41.594;23.808;2023-04-24T03:06:06;95333.09;;;9.10;71.26
24160;BME280;62385;41.594;23.808;2023-04-24T03:08:33;95337.72;;;9.16;71.53
24160;BME280;62385;41.594;23.808;2023-04-24T03:10:59;95342.34;;;9.47;69.79
24160;BME280;62385;41.594;23.808;2023-04-24T03:13:24;95326.13;;;9.25;70.16
24160;BME280;62385;41.594;23.808;2023-04-24T03:15:50;95331.94;;;8.97;71.78
24160;BME280;62385;41.594;23.808;2023-04-24T03:18:16;95335.03;;;9.49;70.06
24160;BME280;62385;41.594;23.808;2023-04-24T03:20:42;95329.41;;;9.60;69.79
24160;BME280;62385;41.594;23.808;2023-04-24T03:23:07;95333.22;;;9.49;69.92
24160;BME280;62385;41.594;23.808;2023-04-24T03:25:34;95337.03;;;9.55;69.30
24160;BME280;62385;41.594;23.808;2023-04-24T03:28:00;95329.91;;;9.63;69.15
24160;BME280;62385;41.594;23.808;2023-04-24T03:30:47;95317.03;;;9.20;70.27
24160;BME280;62385;41.594;23.808;2023-04-24T03:33:13;95327.28;;;9.39;70.55
24160;BME280;62385;41.594;23.808;2023-04-24T03:35:47;95332.25;;;9.42;70.38
24160;BME280;62385;41.594;23.808;2023-04-24T03:38:13;95329.78;;;9.00;71.00
24160;BME280;62385;41.594;23.808;2023-04-24T03:40:42;95324.13;;;8.87;71.78
24160;BME280;62385;41.594;23.808;2023-04-24T03:43:23;95333.25;;;9.09;71.33
24160;BME280;62385;41.594;23.808;2023-04-24T03:45:49;95338.06;;;9.13;70.89
24160;BME280;62385;41.594;23.808;2023-04-24T03:48:16;95337.06;;;9.22;71.12
24160;BME280;62385;41.594;23.808;2023-04-24T03:50:42;95344.34;;;9.20;69.77
24160;BME280;62385;41.594;23.808;2023-04-24T03:53:10;95342.69;;;9.03;70.12
24160;BME280;62385;41.594;23.808;2023-04-24T03:55:39;95332.28;;;8.94;70.96
24160;BME280;62385;41.594;23.808;2023-04-24T03:58:04;95337.06;;;8.98;71.32
24160;BME280;62385;41.594;23.808;2023-04-24T04:00:31;95335.06;;;9.24;70.03
24160;BME280;62385;41.594;23.808;2023-04-24T04:03:17;95337.56;;;8.77;71.73
24160;BME280;62385;41.594;23.808;2023-04-24T04:05:42;95343.34;;;8.81;71.59
24160;BME280;62385;41.594;23.808;2023-04-24T04:08:08;95339.38;;;8.93;71.00
24160;BME280;62385;41.594;23.808;2023-04-24T04:10:34;95331.94;;;9.13;70.66
24160;BME280;62385;41.594;23.808;2023-04-24T04:13:00;95338.06;;;9.38;69.68
24160;BME280;62385;41.594;23.808;2023-04-24T04:15:27;95334.53;;;9.53;69.10
24160;BME280;62385;41.594;23.808;2023-04-24T04:17:52;95327.28;;;9.55;69.06
24160;BME280;62385;41.594;23.808;2023-04-24T04:20:18;95329.25;;;9.53;69.58
24160;BME280;62385;41.594;23.808;2023-04-24T04:22:44;95338.84;;;9.62;69.60
24160;BME280;62385;41.594;23.808;2023-04-24T04:25:12;95336.88;;;9.64;69.70
24160;BME280;62385;41.594;23.808;2023-04-24T04:27:39;95343.47;;;9.68;68.96
24160;BME280;62385;41.594;23.808;2023-04-24T04:30:10;95345.97;;;9.62;69.29
24160;BME280;62385;41.594;23.808;2023-04-24T04:32:51;95353.75;;;9.63;69.43
24160;BME280;62385;41.594;23.808;2023-04-24T04:35:17;95353.25;;;9.68;70.21
24160;BME280;62385;41.594;23.808;2023-04-24T04:37:43;95350.41;;;9.69;69.74
24160;BME280;62385;41.594;23.808;2023-04-24T04:40:30;95357.50;;;9.93;69.02
24160;BME280;62385;41.594;23.808;2023-04-24T04:43:00;95353.06;;;9.69;69.49
24160;BME280;62385;41.594;23.808;2023-04-24T04:45:30;95361.00;;;9.94;68.92
24160;BME280;62385;41.594;23.808;2023-04-24T04:48:14;95351.72;;;9.73;69.37
24160;BME280;62385;41.594;23.808;2023-04-24T04:51:01;95361.03;;;9.61;69.51
24160;BME280;62385;41.594;23.808;2023-04-24T04:53:28;95352.91;;;9.71;69.01
24160;BME280;62385;41.594;23.808;2023-04-24T04:55:54;95350.38;;;9.94;68.57
24160;BME280;62385;41.594;23.808;2023-04-24T04:58:26;95349.16;;;10.21;67.80
24160;BME280;62385;41.594;23.808;2023-04-24T05:00:55;95346.66;;;10.58;67.30
24160;BME280;62385;41.594;23.808;2023-04-24T05:03:44;95347.09;;;10.39;67.79
24160;BME280;62385;41.594;23.808;2023-04-24T05:06:12;95344.84;;;10.58;67.56
24160;BME280;62385;41.594;23.808;2023-04-24T05:08:39;95342.19;;;10.81;66.59
24160;BME280;62385;41.594;23.808;2023-04-24T05:11:08;95347.81;;;10.63;67.60
24160;BME280;62385;41.594;23.808;2023-04-24T05:13:35;95358.09;;;10.89;67.44
24160;BME280;62385;41.594;23.808;2023-04-24T05:16:03;95357.44;;;10.56;67.73
24160;BME280;62385;41.594;23.808;2023-04-24T05:18:30;95350.38;;;10.80;67.93
24160;BME280;62385;41.594;23.808;2023-04-24T05:20:56;95342.09;;;10.75;67.09
24160;BME280;62385;41.594;23.808;2023-04-24T05:23:23;95343.53;;;11.08;66.93
24160;BME280;62385;41.594;23.808;2023-04-24T05:25:51;95357.34;;;11.03;67.33
24160;BME280;62385;41.594;23.808;2023-04-24T05:28:17;95347.84;;;11.09;67.23
24160;BME280;62385;41.594;23.808;2023-04-24T05:30:47;95353.97;;;10.87;66.94
24160;BME280;62385;41.594;23.808;2023-04-24T05:33:14;95351.09;;;10.65;67.79
24160;BME280;62385;41.594;23.808;2023-04-24T05:35:40;95356.16;;;10.83;67.38
24160;BME280;62385;41.594;23.808;2023-04-24T05:38:12;95351.97;;;10.89;67.00
24160;BME280;62385;41.594;23.808;2023-04-24T05:40:38;95355.69;;;11.02;66.27
24160;BME280;62385;41.594;23.808;2023-04-24T05:43:04;95342.59;;;11.01;66.47
24160;BME280;62385;41.594;23.808;2023-04-24T05:45:30;95356.91;;;11.15;66.56
24160;BME280;62385;41.594;23.808;2023-04-24T05:47:59;95354.25;;;11.15;66.07
24160;BME280;62385;41.594;23.808;2023-04-24T05:50:24;95356.50;;;11.03;66.42
24160;BME280;62385;41.594;23.808;2023-04-24T05:52:50;95351.91;;;11.42;65.95
24160;BME280;62385;41.594;23.808;2023-04-24T05:55:25;95349.56;;;11.62;64.86
24160;BME280;62385;41.594;23.808;2023-04-24T05:57:52;95342.66;;;12.05;64.59
24160;BME280;62385;41.594;23.808;2023-04-24T06:00:18;95342.66;;;12.20;63.28
24160;BME280;62385;41.594;23.808;2023-04-24T06:02:51;95338.78;;;11.93;65.11
24160;BME280;62385;41.594;23.808;2023-04-24T06:05:19;95344.94;;;11.93;64.62
24160;BME280;62385;41.594;23.808;2023-04-24T06:07:45;95340.16;;;11.74;65.37
24160;BME280;62385;41.594;23.808;2023-04-24T06:10:11;95343.13;;;12.09;64.50
24160;BME280;62385;41.594;23.808;2023-04-24T06:12:42;95344.50;;;12.05;63.76
24160;BME280;62385;41.594;23.808;2023-04-24T06:15:14;95337.91;;;12.15;64.36
24160;BME280;62385;41.594;23.808;2023-04-24T06:17:56;95331.13;;;12.63;62.96
24160;BME280;62385;41.594;23.808;2023-04-24T06:20:24;95325.56;;;12.43;63.16
24160;BME280;62385;41.594;23.808;2023-04-24T06:22:50;95323.50;;;12.75;63.65
24160;BME280;62385;41.594;23.808;2023-04-24T06:25:16;95322.00;;;12.36;64.19
24160;BME280;62385;41.594;23.808;2023-04-24T06:27:42;95327.50;;;12.85;63.14
24160;BME280;62385;41.594;23.808;2023-04-24T06:30:09;95325.84;;;12.84;63.13
24160;BME280;62385;41.594;23.808;2023-04-24T06:32:34;95330.16;;;12.85;63.73
24160;BME280;62385;41.594;23.808;2023-04-24T06:35:00;95320.34;;;13.07;63.73
24160;BME280;62385;41.594;23.808;2023-04-24T06:37:26;95313.44;;;12.91;62.51
24160;BME280;62385;41.594;23.808;2023-04-24T06:39:52;95311.84;;;13.61;60.43
24160;BME280;62385;41.594;23.808;2023-04-24T06:42:18;95310.25;;;13.66;59.75
24160;BME280;62385;41.594;23.808;2023-04-24T06:44:48;95313.44;;;13.83;59.25
24160;BME280;62385;41.594;23.808;2023-04-24T06:47:14;95309.41;;;14.00;58.71
24160;BME280;62385;41.594;23.808;2023-04-24T06:49:42;95308.53;;;13.86;58.72
24160;BME280;62385;41.594;23.808;2023-04-24T06:52:07;95301.31;;;14.15;58.80
24160;BME280;62385;41.594;23.808;2023-04-24T06:54:33;95299.53;;;13.94;59.39
24160;BME280;62385;41.594;23.808;2023-04-24T06:56:59;95302.88;;;14.03;58.78
24160;BME280;62385;41.594;23.808;2023-04-24T06:59:28;95309.34;;;14.56;57.34
24160;BME280;62385;41.594;23.808;2023-04-24T07:01:54;95300.72;;;14.19;57.65
24160;BME280;62385;41.594;23.808;2023-04-24T07:04:20;95304.06;;;14.28;57.39
24160;BME280;62385;41.594;23.808;2023-04-24T07:06:46;95282.34;;;14.98;56.15
24160;BME280;62385;41.594;23.808;2023-04-24T07:09:12;95295.94;;;15.16;56.01
24160;BME280;62385;41.594;23.808;2023-04-24T07:11:39;95306.63;;;15.10;56.13
24160;BME280;62385;41.594;23.808;2023-04-24T07:14:06;95296.50;;;14.92;56.38
24160;BME280;62385;41.594;23.808;2023-04-24T07:16:32;95292.13;;;14.71;57.93
24160;BME280;62385;41.594;23.808;2023-04-24T07:18:58;95286.72;;;14.52;57.85
24160;BME280;62385;41.594;23.808;2023-04-24T07:21:24;95280.69;;;14.91;56.61
24160;BME280;62385;41.594;23.808;2023-04-24T07:23:52;95285.63;;;14.94;56.72
24160;BME280;62385;41.594;23.808;2023-04-24T07:26:17;95290.06;;;14.67;59.38
24160;BME280;62385;41.594;23.808;2023-04-24T07:28:43;95280.84;;;14.69;57.77
24160;BME280;62385;41.594;23.808;2023-04-24T07:31:11;95276.22;;;14.50;58.45
24160;BME280;62385;41.594;23.808;2023-04-24T07:33:37;95273.88;;;14.88;57.63
24160;BME280;62385;41.594;23.808;2023-04-24T07:36:03;95269.41;;;15.41;55.68
24160;BME280;62385;41.594;23.808;2023-04-24T07:38:32;95271.88;;;15.10;57.20
24160;BME280;62385;41.594;23.808;2023-04-24T07:40:57;95272.88;;;14.89;58.61
24160;BME280;62385;41.594;23.808;2023-04-24T07:43:23;95272.88;;;14.96;57.90
24160;BME280;62385;41.594;23.808;2023-04-24T07:45:50;95277.00;;;15.05;59.61
24160;BME280;62385;41.594;23.808;2023-04-24T07:48:17;95272.75;;;15.50;57.39
24160;BME280;62385;41.594;23.808;2023-04-24T07:50:43;95275.63;;;15.61;58.33
24160;BME280;62385;41.594;23.808;2023-04-24T07:53:09;95268.59;;;15.41;56.41
24160;BME280;62385;41.594;23.808;2023-04-24T07:55:35;95277.03;;;15.18;58.70
24160;BME280;62385;41.594;23.808;2023-04-24T07:58:01;95265.19;;;14.66;60.17
24160;BME280;62385;41.594;23.808;2023-04-24T08:00:27;95267.56;;;15.22;59.00
24160;BME280;62385;41.594;23.808;2023-04-24T08:02:53;95268.59;;;15.28;57.99
24160;BME280;62385;41.594;23.808;2023-04-24T08:05:18;95267.16;;;15.45;58.36
24160;BME280;62385;41.594;23.808;2023-04-24T08:07:45;95266.75;;;15.94;55.67
24160;BME280;62385;41.594;23.808;2023-04-24T08:10:17;95251.22;;;16.22;55.54
24160;BME280;62385;41.594;23.808;2023-04-24T08:12:58;95262.22;;;15.61;56.62
24160;BME280;62385;41.594;23.808;2023-04-24T08:15:37;95267.38;;;15.63;57.67
24160;BME280;62385;41.594;23.808;2023-04-24T08:18:03;95268.41;;;15.75;57.02
24160;BME280;62385;41.594;23.808;2023-04-24T08:21:03;95264.31;;;15.73;57.46
24160;BME280;62385;41.594;23.808;2023-04-24T08:23:32;95259.66;;;16.26;56.29
24160;BME280;62385;41.594;23.808;2023-04-24T08:26:13;95258.09;;;15.98;55.89
24160;BME280;62385;41.594;23.808;2023-04-24T08:29:12;95244.47;;;16.06;57.00
24160;BME280;62385;41.594;23.808;2023-04-24T08:35:52;95232.66;;;16.27;55.43
24160;BME280;62385;41.594;23.808;2023-04-24T08:39:24;95230.03;;;16.65;55.84
24160;BME280;62385;41.594;23.808;2023-04-24T08:54:30;95197.63;;;17.29;52.95
24160;BME280;62385;41.594;23.808;2023-04-24T08:57:42;95188.19;;;17.70;52.37
24160;BME280;62385;41.594;23.808;2023-04-24T09:24:24;95157.16;;;18.10;49.27
24160;BME280;62385;41.594;23.808;2023-04-24T09:27:11;95151.47;;;18.55;50.13
24160;BME280;62385;41.594;23.808;2023-04-24T09:29:37;95162.72;;;19.05;48.04
24160;BME280;62385;41.594;23.808;2023-04-24T09:32:22;95151.75;;;18.47;48.26
24160;BME280;62385;41.594;23.808;2023-04-24T09:37:43;95145.91;;;19.32;48.85
24160;BME280;62385;41.594;23.808;2023-04-24T09:40:15;95133.41;;;18.85;47.90
24160;BME280;62385;41.594;23.808;2023-04-24T09:42:56;95128.16;;;18.78;48.78
24160;BME280;62385;41.594;23.808;2023-04-24T09:45:27;95137.72;;;18.44;46.47
24160;BME280;62385;41.594;23.808;2023-04-24T09:47:53;95141.44;;;18.62;47.37
24160;BME280;62385;41.594;23.808;2023-04-24T09:50:21;95134.19;;;19.27;45.93
24160;BME280;62385;41.594;23.808;2023-04-24T09:52:59;95129.19;;;18.77;45.92
24160;BME280;62385;41.594;23.808;2023-04-24T09:55:27;95126.50;;;19.65;45.38
24160;BME280;62385;41.594;23.808;2023-04-24T09:57:58;95111.19;;;19.54;46.06
24160;BME280;62385;41.594;23.808;2023-04-24T10:00:29;95119.44;;;19.99;45.15
24160;BME280;62385;41.594;23.808;2023-04-24T10:03:01;95115.28;;;19.57;45.45
24160;BME280;62385;41.594;23.808;2023-04-24T10:05:37;95113.84;;;19.31;45.06
24160;BME280;62385;41.594;23.808;2023-04-24T10:08:09;95107.63;;;20.28;45.89
24160;BME280;62385;41.594;23.808;2023-04-24T10:10:39;95092.28;;;20.57;45.24
24160;BME280;62385;41.594;23.808;2023-04-24T10:13:07;95097.72;;;20.46;45.07
24160;BME280;62385;41.594;23.808;2023-04-24T10:15:34;95102.38;;;19.59;45.11
24160;BME280;62385;41.594;23.808;2023-04-24T10:18:02;95095.81;;;19.78;46.08
24160;BME280;62385;41.594;23.808;2023-04-24T10:20:29;95084.28;;;19.94;45.73
24160;BME280;62385;41.594;23.808;2023-04-24T10:22:57;95085.16;;;19.83;44.25
24160;BME280;62385;41.594;23.808;2023-04-24T10:25:25;95075.25;;;20.00;44.80
24160;BME280;62385;41.594;23.808;2023-04-24T10:27:53;95081.66;;;20.51;43.89
24160;BME280;62385;41.594;23.808;2023-04-24T10:30:22;95082.78;;;20.26;44.68
24160;BME280;62385;41.594;23.808;2023-04-24T10:32:48;95074.38;;;20.51;42.60
24160;BME280;62385;41.594;23.808;2023-04-24T10:35:15;95078.50;;;19.51;43.75
24160;BME280;62385;41.594;23.808;2023-04-24T10:37:45;95063.53;;;20.96;42.25
24160;BME280;62385;41.594;23.808;2023-04-24T10:40:18;95068.88;;;20.75;43.41
24160;BME280;62385;41.594;23.808;2023-04-24T10:42:51;95058.56;;;21.22;42.82
24160;BME280;62385;41.594;23.808;2023-04-24T10:45:20;95052.75;;;20.35;43.03
24160;BME280;62385;41.594;23.808;2023-04-24T10:50:29;95055.44;;;19.66;44.14
24160;BME280;62385;41.594;23.808;2023-04-24T10:53:07;95052.25;;;20.09;43.63
24160;BME280;62385;41.594;23.808;2023-04-24T10:58:07;95048.00;;;20.70;43.08
24160;BME280;62385;41.594;23.808;2023-04-24T11:00:36;95044.66;;;20.96;42.54
24160;BME280;62385;41.594;23.808;2023-04-24T11:03:05;95034.19;;;21.00;42.04
24160;BME280;62385;41.594;23.808;2023-04-24T11:06:05;95032.34;;;21.55;41.13
24160;BME280;62385;41.594;23.808;2023-04-24T11:08:37;95027.00;;;20.89;40.93
24160;BME280;62385;41.594;23.808;2023-04-24T11:11:15;95033.28;;;20.78;42.09
24160;BME280;62385;41.594;23.808;2023-04-24T11:21:48;94999.03;;;21.72;40.69
24160;BME280;62385;41.594;23.808;2023-04-24T11:24:28;95002.63;;;21.00;41.39
24160;BME280;62385;41.594;23.808;2023-04-24T11:26:56;94990.44;;;20.48;41.65
24160;BME280;62385;41.594;23.808;2023-04-24T11:29:24;94997.81;;;21.19;41.28
24160;BME280;62385;41.594;23.808;2023-04-24T11:34:40;94993.41;;;22.75;38.83
24160;BME280;62385;41.594;23.808;2023-04-24T11:37:05;94994.84;;;22.56;39.06
24160;BME280;62385;41.594;23.808;2023-04-24T11:39:36;94988.03;;;23.17;39.34
24160;BME280;62385;41.594;23.808;2023-04-24T11:42:04;94982.69;;;22.85;38.29
24160;BME280;62385;41.594;23.808;2023-04-24T11:44:36;94985.31;;;21.78;39.09
24160;BME280;62385;41.594;23.808;2023-04-24T11:47:08;94977.66;;;21.70;38.50
24160;BME280;62385;41.594;23.808;2023-04-24T11:49:33;94982.44;;;21.41;39.14
24160;BME280;62385;41.594;23.808;2023-04-24T11:52:00;94973.31;;;22.13;37.00
24160;BME280;62385;41.594;23.808;2023-04-24T11:54:26;94968.56;;;22.83;36.63
24160;BME280;62385;41.594;23.808;2023-04-24T11:56:52;94966.25;;;22.65;35.60
24160;BME280;62385;41.594;23.808;2023-04-24T11:59:18;94958.66;;;22.67;36.08
24160;BME280;62385;41.594;23.808;2023-04-24T12:01:44;94958.44;;;23.06;34.46
24160;BME280;62385;41.594;23.808;2023-04-24T12:04:11;94965.22;;;22.39;33.82
24160;BME280;62385;41.594;23.808;2023-04-24T12:06:37;94963.81;;;22.37;33.74
24160;BME280;62385;41.594;23.808;2023-04-24T12:09:02;94959.84;;;22.18;33.35
24160;BME280;62385;41.594;23.808;2023-04-24T12:11:28;94952.09;;;21.99;34.17
24160;BME280;62385;41.594;23.808;2023-04-24T12:13:54;94952.13;;;21.56;32.51
24160;BME280;62385;41.594;23.808;2023-04-24T12:16:19;94947.09;;;21.43;33.95
24160;BME280;62385;41.594;23.808;2023-04-24T12:18:45;94952.50;;;21.43;34.25
24160;BME280;62385;41.594;23.808;2023-04-24T12:21:29;94928.13;;;22.08;33.26
24160;BME280;62385;41.594;23.808;2023-04-24T12:23:57;94934.81;;;22.00;32.43
24160;BME280;62385;41.594;23.808;2023-04-24T12:26:23;94921.66;;;21.87;32.77
24160;BME280;62385;41.594;23.808;2023-04-24T12:28:49;94929.09;;;22.24;30.87
24160;BME280;62385;41.594;23.808;2023-04-24T12:31:20;94917.28;;;22.35;32.48
24160;BME280;62385;41.594;23.808;2023-04-24T12:33:46;94924.34;;;21.87;30.55
24160;BME280;62385;41.594;23.808;2023-04-24T12:36:12;94911.97;;;22.82;31.86
24160;BME280;62385;41.594;23.808;2023-04-24T12:38:38;94906.16;;;23.47;30.66
24160;BME280;62385;41.594;23.808;2023-04-24T12:41:09;94910.19;;;22.61;30.84
24160;BME280;62385;41.594;23.808;2023-04-24T12:43:36;94909.56;;;22.80;34.05
24160;BME280;62385;41.594;23.808;2023-04-24T12:46:02;94900.88;;;23.92;32.41
24160;BME280;62385;41.594;23.808;2023-04-24T12:48:28;94901.09;;;23.71;32.95
24160;BME280;62385;41.594;23.808;2023-04-24T12:50:54;94895.78;;;24.52;33.03
24160;BME280;62385;41.594;23.808;2023-04-24T12:53:22;94884.41;;;24.40;32.71
24160;BME280;62385;41.594;23.808;2023-04-24T12:55:47;94884.41;;;24.45;33.59
24160;BME280;62385;41.594;23.808;2023-04-24T12:58:21;94878.44;;;24.53;33.25
24160;BME280;62385;41.594;23.808;2023-04-24T13:00:47;94869.75;;;24.35;32.73
24160;BME280;62385;41.594;23.808;2023-04-24T13:03:14;94873.22;;;24.81;31.18
24160;BME280;62385;41.594;23.808;2023-04-24T13:05:41;94871.88;;;24.99;30.76
24160;BME280;62385;41.594;23.808;2023-04-24T13:08:08;94863.78;;;24.59;30.86
24160;BME280;62385;41.594;23.808;2023-04-24T13:10:34;94869.47;;;24.27;28.12
24160;BME280;62385;41.594;23.808;2023-04-24T13:13:00;94865.00;;;22.98;29.63
24160;BME280;62385;41.594;23.808;2023-04-24T13:15:26;94848.31;;;24.54;29.28
24160;BME280;62385;41.594;23.808;2023-04-24T13:17:52;94856.34;;;23.73;30.39
24160;BME280;62385;41.594;23.808;2023-04-24T13:20:18;94852.84;;;23.68;28.70
24160;BME280;62385;41.594;23.808;2023-04-24T13:22:44;94851.28;;;24.12;30.15
24160;BME280;62385;41.594;23.808;2023-04-24T13:25:10;94840.38;;;25.03;29.88
24160;BME280;62385;41.594;23.808;2023-04-24T13:27:38;94840.16;;;24.19;32.96
24160;BME280;62385;41.594;23.808;2023-04-24T13:30:04;94852.59;;;23.95;32.96
24160;BME280;62385;41.594;23.808;2023-04-24T13:32:30;94843.84;;;25.14;32.63
24160;BME280;62385;41.594;23.808;2023-04-24T13:34:56;94852.06;;;24.99;32.22
24160;BME280;62385;41.594;23.808;2023-04-24T13:37:22;94843.41;;;24.61;32.13
24160;BME280;62385;41.594;23.808;2023-04-24T13:39:48;94841.75;;;24.91;31.62
24160;BME280;62385;41.594;23.808;2023-04-24T13:42:13;94847.66;;;23.56;33.14
24160;BME280;62385;41.594;23.808;2023-04-24T13:44:39;94858.81;;;23.75;33.37
24160;BME280;62385;41.594;23.808;2023-04-24T13:47:05;94847.50;;;24.64;34.18
24160;BME280;62385;41.594;23.808;2023-04-24T13:49:31;94848.81;;;24.76;31.99
24160;BME280;62385;41.594;23.808;2023-04-24T13:51:56;94854.72;;;23.00;34.82
24160;BME280;62385;41.594;23.808;2023-04-24T13:54:22;94868.16;;;22.85;35.47
24160;BME280;62385;41.594;23.808;2023-04-24T13:56:51;94856.22;;;23.38;36.44
24160;BME280;62385;41.594;23.808;2023-04-24T13:59:17;94852.28;;;23.71;36.55